sensor_id;sensor_type;location;lat;lon;timestamp;pressure;altitude;pressure_sealevel;temperature;humidity
54592;BME280;40488;48.558;18.150;2023-08-21T00:00:13;100075.72;;;22.49;78.38
54592;BME280;40488;48.558;18.150;2023-08-21T00:02:42;100073.56;;;22.39;78.56
54592;BME280;40488;48.558;18.150;2023-08-21T00:05:11;100074.69;;;22.33;78.82
54592;BME280;40488;48.558;18.150;2023-08-21T00:07:40;100070.25;;;22.35;78.94
54592;BME280;40488;48.558;18.150;2023-08-21T00:10:10;100085.97;;;22.32;78.91
54592;BME280;40488;48.558;18.150;2023-08-21T00:12:41;100080.78;;;22.32;78.96
54592;BME280;40488;48.558;18.150;2023-08-21T00:15:10;100087.72;;;22.32;78.75
54592;BME280;40488;48.558;18.150;2023-08-21T00:17:39;100083.50;;;22.29;78.48
54592;BME280;40488;48.558;18.150;2023-08-21T00:20:09;100076.88;;;22.22;78.64
54592;BME280;40488;48.558;18.150;2023-08-21T00:22:38;100084.16;;;22.14;78.92
54592;BME280;40488;48.558;18.150;2023-08-21T00:25:08;100077.53;;;22.07;78.89
54592;BME280;40488;48.558;18.150;2023-08-21T00:27:38;100079.47;;;22.02;79.03
54592;BME280;40488;48.558;18.150;2023-08-21T00:30:08;100083.09;;;21.98;79.16
54592;BME280;40488;48.558;18.150;2023-08-21T00:32:38;100077.66;;;22.04;79.09
54592;BME280;40488;48.558;18.150;2023-08-21T00:35:08;100077.72;;;22.02;79.10
54592;BME280;40488;48.558;18.150;2023-08-21T00:37:37;100077.75;;;22.01;79.08
54592;BME280;40488;48.558;18.150;2023-08-21T00:40:06;100079.34;;;22.05;79.22
54592;BME280;40488;48.558;18.150;2023-08-21T00:42:36;100072.31;;;22.07;78.90
54592;BME280;40488;48.558;18.150;2023-08-21T00:45:07;100071.00;;;21.97;79.08
54592;BME280;40488;48.558;18.150;2023-08-21T00:47:37;100080.88;;;21.89;79.23
54592;BME280;40488;48.558;18.150;2023-08-21T00:50:07;100074.25;;;21.80;79.42
54592;BME280;40488;48.558;18.150;2023-08-21T00:52:36;100077.94;;;21.75;79.78
54592;BME280;40488;48.558;18.150;2023-08-21T00:55:07;100081.31;;;21.77;79.87
54592;BME280;40488;48.558;18.150;2023-08-21T00:57:38;100078.72;;;21.77;80.03
54592;BME280;40488;48.558;18.150;2023-08-21T01:00:11;100085.38;;;21.84;79.91
54592;BME280;40488;48.558;18.150;2023-08-21T01:02:40;100082.09;;;21.79;79.74
54592;BME280;40488;48.558;18.150;2023-08-21T01:05:12;100080.44;;;21.78;79.99
54592;BME280;40488;48.558;18.150;2023-08-21T01:07:49;100085.84;;;21.72;80.13
54592;BME280;40488;48.558;18.150;2023-08-21T01:10:28;100085.19;;;21.67;80.28
54592;BME280;40488;48.558;18.150;2023-08-21T01:13:06;100079.09;;;21.68;80.20
54592;BME280;40488;48.558;18.150;2023-08-21T01:15:40;100083.72;;;21.60;80.10
54592;BME280;40488;48.558;18.150;2023-08-21T01:18:10;100079.34;;;21.62;80.42
54592;BME280;40488;48.558;18.150;2023-08-21T01:20:41;100073.97;;;21.66;80.27
54592;BME280;40488;48.558;18.150;2023-08-21T01:23:09;100073.13;;;21.66;80.24
54592;BME280;40488;48.558;18.150;2023-08-21T01:25:39;100081.13;;;21.60;80.36
54592;BME280;40488;48.558;18.150;2023-08-21T01:28:08;100080.47;;;21.55;80.66
54592;BME280;40488;48.558;18.150;2023-08-21T01:30:38;100085.03;;;21.50;80.92
54592;BME280;40488;48.558;18.150;2023-08-21T01:33:10;100083.06;;;21.55;80.84
54592;BME280;40488;48.558;18.150;2023-08-21T01:35:42;100078.06;;;21.50;80.58
54592;BME280;40488;48.558;18.150;2023-08-21T01:38:12;100073.81;;;21.48;80.38
54592;BME280;40488;48.558;18.150;2023-08-21T01:40:42;100069.66;;;21.44;80.19
54592;BME280;40488;48.558;18.150;2023-08-21T01:43:11;100072.25;;;21.44;80.08
54592;BME280;40488;48.558;18.150;2023-08-21T01:45:40;100073.19;;;21.43;80.17
54592;BME280;40488;48.558;18.150;2023-08-21T01:48:10;100086.94;;;21.45;79.98
54592;BME280;40488;48.558;18.150;2023-08-21T01:50:39;100085.34;;;21.41;79.99
54592;BME280;40488;48.558;18.150;2023-08-21T01:53:08;100084.03;;;21.30;80.09
54592;BME280;40488;48.558;18.150;2023-08-21T01:55:37;100078.16;;;21.25;80.37
54592;BME280;40488;48.558;18.150;2023-08-21T01:58:07;100074.63;;;21.28;80.30
54592;BME280;40488;48.558;18.150;2023-08-21T02:00:38;100063.47;;;21.24;79.88
54592;BME280;40488;48.558;18.150;2023-08-21T02:03:07;100070.38;;;21.25;79.82
54592;BME280;40488;48.558;18.150;2023-08-21T02:05:40;100061.34;;;21.12;80.05
54592;BME280;40488;48.558;18.150;2023-08-21T02:08:11;100061.72;;;21.02;79.85
54592;BME280;40488;48.558;18.150;2023-08-21T02:10:49;100060.97;;;20.98;80.43
54592;BME280;40488;48.558;18.150;2023-08-21T02:13:19;100059.81;;;21.07;80.47
54592;BME280;40488;48.558;18.150;2023-08-21T02:15:48;100070.84;;;21.13;80.23
54592;BME280;40488;48.558;18.150;2023-08-21T02:18:19;100060.75;;;21.04;80.37
54592;BME280;40488;48.558;18.150;2023-08-21T02:20:48;100066.19;;;20.98;80.49
54592;BME280;40488;48.558;18.150;2023-08-21T02:23:17;100066.97;;;21.00;80.50
54592;BME280;40488;48.558;18.150;2023-08-21T02:25:47;100060.09;;;20.99;80.28
54592;BME280;40488;48.558;18.150;2023-08-21T02:28:16;100079.09;;;21.00;80.46
54592;BME280;40488;48.558;18.150;2023-08-21T02:30:49;100078.06;;;21.05;80.38
54592;BME280;40488;48.558;18.150;2023-08-21T02:33:18;100074.75;;;21.00;80.24
54592;BME280;40488;48.558;18.150;2023-08-21T02:35:47;100071.25;;;21.01;80.20
54592;BME280;40488;48.558;18.150;2023-08-21T02:38:16;100071.28;;;21.00;80.19
54592;BME280;40488;48.558;18.150;2023-08-21T02:40:45;100074.34;;;20.88;80.43
54592;BME280;40488;48.558;18.150;2023-08-21T02:43:15;100067.81;;;20.78;80.62
54592;BME280;40488;48.558;18.150;2023-08-21T02:45:44;100065.38;;;20.73;80.67
54592;BME280;40488;48.558;18.150;2023-08-21T02:48:15;100062.38;;;20.60;80.98
54592;BME280;40488;48.558;18.150;2023-08-21T02:50:43;100057.47;;;20.53;81.27
54592;BME280;40488;48.558;18.150;2023-08-21T02:53:13;100064.22;;;20.57;81.28
54592;BME280;40488;48.558;18.150;2023-08-21T02:55:42;100062.91;;;20.70;81.35
54592;BME280;40488;48.558;18.150;2023-08-21T02:58:12;100063.44;;;20.78;80.98
54592;BME280;40488;48.558;18.150;2023-08-21T03:00:41;100063.34;;;20.81;80.58
54592;BME280;40488;48.558;18.150;2023-08-21T03:03:11;100054.09;;;20.74;80.75
54592;BME280;40488;48.558;18.150;2023-08-21T03:05:42;100064.13;;;20.60;80.90
54592;BME280;40488;48.558;18.150;2023-08-21T03:08:11;100055.31;;;20.64;81.19
54592;BME280;40488;48.558;18.150;2023-08-21T03:10:41;100057.72;;;20.70;81.13
54592;BME280;40488;48.558;18.150;2023-08-21T03:13:09;100056.94;;;20.68;80.96
54592;BME280;40488;48.558;18.150;2023-08-21T03:15:39;100062.72;;;20.75;81.11
54592;BME280;40488;48.558;18.150;2023-08-21T03:18:07;100051.41;;;20.77;80.96
54592;BME280;40488;48.558;18.150;2023-08-21T03:20:36;100059.38;;;20.71;81.09
54592;BME280;40488;48.558;18.150;2023-08-21T03:23:07;100054.69;;;20.57;81.37
54592;BME280;40488;48.558;18.150;2023-08-21T03:25:36;100057.56;;;20.50;81.68
54592;BME280;40488;48.558;18.150;2023-08-21T03:28:05;100057.66;;;20.47;81.92
54592;BME280;40488;48.558;18.150;2023-08-21T03:30:35;100060.94;;;20.52;82.22
54592;BME280;40488;48.558;18.150;2023-08-21T03:33:04;100060.75;;;20.58;82.04
54592;BME280;40488;48.558;18.150;2023-08-21T03:35:33;100064.88;;;20.63;82.28
54592;BME280;40488;48.558;18.150;2023-08-21T03:38:02;100054.59;;;20.60;82.15
54592;BME280;40488;48.558;18.150;2023-08-21T03:40:41;100062.94;;;20.68;82.25
54592;BME280;40488;48.558;18.150;2023-08-21T03:43:10;100061.88;;;20.74;82.09
54592;BME280;40488;48.558;18.150;2023-08-21T03:45:40;100067.06;;;20.74;82.05
54592;BME280;40488;48.558;18.150;2023-08-21T03:48:09;100054.19;;;20.71;82.32
54592;BME280;40488;48.558;18.150;2023-08-21T03:50:38;100055.00;;;20.73;82.23
54592;BME280;40488;48.558;18.150;2023-08-21T03:53:07;100057.47;;;20.76;82.00
54592;BME280;40488;48.558;18.150;2023-08-21T03:55:36;100066.97;;;20.77;81.97
54592;BME280;40488;48.558;18.150;2023-08-21T03:58:10;100061.81;;;20.76;81.96
54592;BME280;40488;48.558;18.150;2023-08-21T04:00:39;100066.03;;;20.78;82.04
54592;BME280;40488;48.558;18.150;2023-08-21T04:03:08;100063.34;;;20.81;81.84
54592;BME280;40488;48.558;18.150;2023-08-21T04:05:37;100065.16;;;20.79;81.82
54592;BME280;40488;48.558;18.150;2023-08-21T04:08:06;100071.22;;;20.78;81.70
54592;BME280;40488;48.558;18.150;2023-08-21T04:10:35;100073.72;;;20.81;81.68
54592;BME280;40488;48.558;18.150;2023-08-21T04:13:06;100072.06;;;20.80;81.54
54592;BME280;40488;48.558;18.150;2023-08-21T04:15:37;100072.16;;;20.77;81.67
54592;BME280;40488;48.558;18.150;2023-08-21T04:18:06;100077.25;;;20.80;81.47
54592;BME280;40488;48.558;18.150;2023-08-21T04:20:35;100076.28;;;20.83;81.51
54592;BME280;40488;48.558;18.150;2023-08-21T04:23:07;100076.84;;;20.91;81.46
54592;BME280;40488;48.558;18.150;2023-08-21T04:25:36;100084.50;;;20.94;81.44
54592;BME280;40488;48.558;18.150;2023-08-21T04:28:05;100088.69;;;20.98;81.39
54592;BME280;40488;48.558;18.150;2023-08-21T04:30:36;100080.84;;;20.99;81.21
54592;BME280;40488;48.558;18.150;2023-08-21T04:33:05;100081.56;;;21.03;81.04
54592;BME280;40488;48.558;18.150;2023-08-21T04:35:37;100084.81;;;21.09;80.78
54592;BME280;40488;48.558;18.150;2023-08-21T04:38:06;100088.00;;;21.17;80.80
54592;BME280;40488;48.558;18.150;2023-08-21T04:40:35;100089.34;;;21.27;80.72
54592;BME280;40488;48.558;18.150;2023-08-21T04:43:04;100091.66;;;21.35;80.67
54592;BME280;40488;48.558;18.150;2023-08-21T04:45:36;100094.78;;;21.43;80.42
54592;BME280;40488;48.558;18.150;2023-08-21T04:48:06;100098.78;;;21.52;80.57
54592;BME280;40488;48.558;18.150;2023-08-21T04:50:35;100095.28;;;21.53;80.53
54592;BME280;40488;48.558;18.150;2023-08-21T04:53:04;100100.25;;;21.59;80.53
54592;BME280;40488;48.558;18.150;2023-08-21T04:55:34;100098.19;;;21.67;80.46
54592;BME280;40488;48.558;18.150;2023-08-21T04:58:04;100098.91;;;21.70;80.32
54592;BME280;40488;48.558;18.150;2023-08-21T05:00:32;100108.22;;;21.76;80.45
54592;BME280;40488;48.558;18.150;2023-08-21T05:03:03;100106.06;;;21.87;80.45
54592;BME280;40488;48.558;18.150;2023-08-21T05:05:32;100105.69;;;21.96;80.14
54592;BME280;40488;48.558;18.150;2023-08-21T05:08:01;100111.38;;;22.06;80.26
54592;BME280;40488;48.558;18.150;2023-08-21T05:10:31;100113.84;;;22.09;79.71
54592;BME280;40488;48.558;18.150;2023-08-21T05:13:00;100117.03;;;22.15;79.41
54592;BME280;40488;48.558;18.150;2023-08-21T05:15:29;100106.13;;;22.27;79.20
54592;BME280;40488;48.558;18.150;2023-08-21T05:17:58;100118.72;;;22.38;78.83
54592;BME280;40488;48.558;18.150;2023-08-21T05:20:29;100115.63;;;22.48;78.40
54592;BME280;40488;48.558;18.150;2023-08-21T05:22:58;100106.53;;;22.58;78.11
54592;BME280;40488;48.558;18.150;2023-08-21T05:25:27;100107.88;;;22.68;77.63
54592;BME280;40488;48.558;18.150;2023-08-21T05:27:55;100102.41;;;22.75;77.29
54592;BME280;40488;48.558;18.150;2023-08-21T05:30:25;100103.97;;;22.79;77.04
54592;BME280;40488;48.558;18.150;2023-08-21T05:32:54;100111.28;;;22.89;76.66
54592;BME280;40488;48.558;18.150;2023-08-21T05:35:23;100106.66;;;22.96;76.23
54592;BME280;40488;48.558;18.150;2023-08-21T05:37:53;100109.91;;;23.01;76.29
54592;BME280;40488;48.558;18.150;2023-08-21T05:40:22;100109.38;;;23.13;76.16
54592;BME280;40488;48.558;18.150;2023-08-21T05:42:51;100108.81;;;23.25;75.79
54592;BME280;40488;48.558;18.150;2023-08-21T05:45:20;100118.75;;;23.36;75.55
54592;BME280;40488;48.558;18.150;2023-08-21T05:47:49;100122.72;;;23.44;75.30
54592;BME280;40488;48.558;18.150;2023-08-21T05:50:18;100132.50;;;23.58;74.74
54592;BME280;40488;48.558;18.150;2023-08-21T05:52:47;100128.75;;;23.63;74.23
54592;BME280;40488;48.558;18.150;2023-08-21T05:55:18;100119.88;;;23.67;73.72
54592;BME280;40488;48.558;18.150;2023-08-21T05:57:47;100128.00;;;23.78;73.35
54592;BME280;40488;48.558;18.150;2023-08-21T06:00:17;100106.88;;;23.84;72.99
54592;BME280;40488;48.558;18.150;2023-08-21T06:02:46;100116.25;;;23.88;72.67
54592;BME280;40488;48.558;18.150;2023-08-21T06:05:34;100122.97;;;23.92;72.27
54592;BME280;40488;48.558;18.150;2023-08-21T06:08:04;100126.06;;;24.00;72.33
54592;BME280;40488;48.558;18.150;2023-08-21T06:10:34;100122.00;;;24.14;72.35
54592;BME280;40488;48.558;18.150;2023-08-21T06:13:03;100125.38;;;24.16;71.89
54592;BME280;40488;48.558;18.150;2023-08-21T06:15:32;100129.50;;;24.20;71.52
54592;BME280;40488;48.558;18.150;2023-08-21T06:18:02;100129.81;;;24.31;71.52
54592;BME280;40488;48.558;18.150;2023-08-21T06:20:31;100132.75;;;24.42;71.39
54592;BME280;40488;48.558;18.150;2023-08-21T06:23:00;100121.69;;;24.54;71.42
54592;BME280;40488;48.558;18.150;2023-08-21T06:25:29;100129.81;;;24.65;71.53
54592;BME280;40488;48.558;18.150;2023-08-21T06:27:59;100125.81;;;24.75;71.09
54592;BME280;40488;48.558;18.150;2023-08-21T06:30:28;100126.06;;;24.88;71.29
54592;BME280;40488;48.558;18.150;2023-08-21T06:32:57;100117.63;;;24.98;71.40
54592;BME280;40488;48.558;18.150;2023-08-21T06:35:27;100126.09;;;25.03;70.57
54592;BME280;40488;48.558;18.150;2023-08-21T06:37:56;100124.41;;;25.02;70.09
54592;BME280;40488;48.558;18.150;2023-08-21T06:40:26;100124.22;;;25.05;69.84
54592;BME280;40488;48.558;18.150;2023-08-21T06:42:55;100122.06;;;25.13;69.35
54592;BME280;40488;48.558;18.150;2023-08-21T06:45:30;100124.34;;;25.19;68.83
54592;BME280;40488;48.558;18.150;2023-08-21T06:48:01;100123.59;;;25.33;69.05
54592;BME280;40488;48.558;18.150;2023-08-21T06:50:30;100123.19;;;25.41;68.54
54592;BME280;40488;48.558;18.150;2023-08-21T06:52:59;100127.19;;;25.48;68.10
54592;BME280;40488;48.558;18.150;2023-08-21T06:55:28;100123.31;;;25.55;67.75
54592;BME280;40488;48.558;18.150;2023-08-21T06:57:57;100125.59;;;25.61;67.04
54592;BME280;40488;48.558;18.150;2023-08-21T07:00:26;100119.94;;;25.68;66.69
54592;BME280;40488;48.558;18.150;2023-08-21T07:02:56;100123.81;;;25.77;66.84
54592;BME280;40488;48.558;18.150;2023-08-21T07:05:25;100132.06;;;25.85;66.80
54592;BME280;40488;48.558;18.150;2023-08-21T07:07:54;100119.31;;;25.94;66.37
54592;BME280;40488;48.558;18.150;2023-08-21T07:10:23;100129.50;;;25.99;66.81
54592;BME280;40488;48.558;18.150;2023-08-21T07:12:53;100128.22;;;26.06;66.25
54592;BME280;40488;48.558;18.150;2023-08-21T07:15:22;100128.31;;;26.20;66.56
54592;BME280;40488;48.558;18.150;2023-08-21T07:17:51;100136.22;;;26.34;66.01
54592;BME280;40488;48.558;18.150;2023-08-21T07:20:21;100137.94;;;26.49;65.37
54592;BME280;40488;48.558;18.150;2023-08-21T07:22:50;100134.97;;;26.55;64.54
54592;BME280;40488;48.558;18.150;2023-08-21T07:25:19;100134.41;;;26.65;64.24
54592;BME280;40488;48.558;18.150;2023-08-21T07:27:50;100131.25;;;26.74;63.97
54592;BME280;40488;48.558;18.150;2023-08-21T07:30:20;100137.00;;;26.80;63.34
54592;BME280;40488;48.558;18.150;2023-08-21T07:32:50;100129.44;;;26.90;62.52
54592;BME280;40488;48.558;18.150;2023-08-21T07:35:19;100121.88;;;26.99;62.51
54592;BME280;40488;48.558;18.150;2023-08-21T07:37:49;100128.13;;;27.11;62.11
54592;BME280;40488;48.558;18.150;2023-08-21T07:40:19;100132.63;;;27.23;62.04
54592;BME280;40488;48.558;18.150;2023-08-21T07:42:49;100133.53;;;27.36;61.29
54592;BME280;40488;48.558;18.150;2023-08-21T07:45:18;100129.41;;;27.46;61.03
54592;BME280;40488;48.558;18.150;2023-08-21T07:47:47;100122.09;;;27.51;60.80
54592;BME280;40488;48.558;18.150;2023-08-21T07:50:35;100127.13;;;27.68;60.63
54592;BME280;40488;48.558;18.150;2023-08-21T07:53:05;100132.53;;;27.79;60.41
54592;BME280;40488;48.558;18.150;2023-08-21T07:55:34;100121.41;;;27.88;60.14
54592;BME280;40488;48.558;18.150;2023-08-21T07:58:03;100129.50;;;28.00;59.56
54592;BME280;40488;48.558;18.150;2023-08-21T08:00:32;100119.53;;;28.05;58.52
54592;BME280;40488;48.558;18.150;2023-08-21T08:03:01;100122.91;;;28.07;57.88
54592;BME280;40488;48.558;18.150;2023-08-21T08:05:30;100116.09;;;28.17;57.66
54592;BME280;40488;48.558;18.150;2023-08-21T08:08:01;100123.25;;;28.27;57.35
54592;BME280;40488;48.558;18.150;2023-08-21T08:10:31;100123.47;;;28.37;57.21
54592;BME280;40488;48.558;18.150;2023-08-21T08:13:00;100120.88;;;28.49;57.49
54592;BME280;40488;48.558;18.150;2023-08-21T08:15:29;100123.31;;;28.65;57.30
54592;BME280;40488;48.558;18.150;2023-08-21T08:17:58;100129.44;;;28.78;56.09
54592;BME280;40488;48.558;18.150;2023-08-21T08:20:26;100127.34;;;28.83;55.39
54592;BME280;40488;48.558;18.150;2023-08-21T08:22:55;100119.13;;;28.88;55.00
54592;BME280;40488;48.558;18.150;2023-08-21T08:25:24;100120.19;;;28.98;55.11
54592;BME280;40488;48.558;18.150;2023-08-21T08:27:54;100118.47;;;29.09;54.76
54592;BME280;40488;48.558;18.150;2023-08-21T08:30:23;100120.66;;;29.15;54.51
54592;BME280;40488;48.558;18.150;2023-08-21T08:32:52;100121.22;;;29.20;54.20
54592;BME280;40488;48.558;18.150;2023-08-21T08:35:21;100129.81;;;29.35;54.23
54592;BME280;40488;48.558;18.150;2023-08-21T08:37:50;100121.06;;;29.47;54.10
54592;BME280;40488;48.558;18.150;2023-08-21T08:40:19;100107.22;;;29.56;54.01
54592;BME280;40488;48.558;18.150;2023-08-21T08:42:48;100111.63;;;29.68;54.10
54592;BME280;40488;48.558;18.150;2023-08-21T08:45:27;100113.94;;;29.73;53.93
54592;BME280;40488;48.558;18.150;2023-08-21T08:47:59;100114.75;;;29.86;54.33
54592;BME280;40488;48.558;18.150;2023-08-21T08:50:31;100114.06;;;29.95;54.14
54592;BME280;40488;48.558;18.150;2023-08-21T08:53:00;100113.41;;;30.04;54.25
54592;BME280;40488;48.558;18.150;2023-08-21T08:55:43;100112.09;;;30.10;53.96
54592;BME280;40488;48.558;18.150;2023-08-21T08:58:12;100110.09;;;30.24;53.53
54592;BME280;40488;48.558;18.150;2023-08-21T09:00:42;100110.38;;;30.32;53.41
54592;BME280;40488;48.558;18.150;2023-08-21T09:03:11;100107.28;;;30.38;53.08
54592;BME280;40488;48.558;18.150;2023-08-21T09:05:41;100101.31;;;30.47;53.06
54592;BME280;40488;48.558;18.150;2023-08-21T09:08:11;100106.84;;;30.56;52.85
54592;BME280;40488;48.558;18.150;2023-08-21T09:10:41;100102.56;;;30.77;53.28
54592;BME280;40488;48.558;18.150;2023-08-21T09:13:12;100098.06;;;31.01;55.29
54592;BME280;40488;48.558;18.150;2023-08-21T09:15:43;100098.28;;;31.20;55.38
54592;BME280;40488;48.558;18.150;2023-08-21T09:18:15;100095.66;;;31.09;53.66
54592;BME280;40488;48.558;18.150;2023-08-21T09:20:44;100096.38;;;31.11;52.60
54592;BME280;40488;48.558;18.150;2023-08-21T09:23:13;100093.50;;;31.03;52.26
54592;BME280;40488;48.558;18.150;2023-08-21T09:25:45;100091.09;;;31.11;51.89
54592;BME280;40488;48.558;18.150;2023-08-21T09:28:19;100092.41;;;31.28;51.66
54592;BME280;40488;48.558;18.150;2023-08-21T09:30:51;100081.72;;;31.40;50.51
54592;BME280;40488;48.558;18.150;2023-08-21T09:33:22;100091.28;;;31.41;51.01
54592;BME280;40488;48.558;18.150;2023-08-21T09:35:52;100088.91;;;31.49;51.22
54592;BME280;40488;48.558;18.150;2023-08-21T09:38:21;100092.72;;;31.56;50.36
54592;BME280;40488;48.558;18.150;2023-08-21T09:40:52;100090.31;;;31.64;50.07
54592;BME280;40488;48.558;18.150;2023-08-21T09:43:22;100085.03;;;31.64;50.37
54592;BME280;40488;48.558;18.150;2023-08-21T09:45:54;100082.94;;;31.79;50.63
54592;BME280;40488;48.558;18.150;2023-08-21T09:48:24;100081.09;;;31.91;49.80
54592;BME280;40488;48.558;18.150;2023-08-21T09:50:55;100078.69;;;31.88;49.63
54592;BME280;40488;48.558;18.150;2023-08-21T09:53:24;100070.28;;;31.94;49.54
54592;BME280;40488;48.558;18.150;2023-08-21T09:55:54;100069.03;;;32.09;49.24
54592;BME280;40488;48.558;18.150;2023-08-21T09:58:24;100067.09;;;32.11;49.25
54592;BME280;40488;48.558;18.150;2023-08-21T10:00:57;100061.88;;;32.20;49.49
54592;BME280;40488;48.558;18.150;2023-08-21T10:03:28;100057.19;;;32.24;48.66
54592;BME280;40488;48.558;18.150;2023-08-21T10:05:58;100059.63;;;32.16;48.12
54592;BME280;40488;48.558;18.150;2023-08-21T10:08:29;100058.41;;;32.20;48.17
54592;BME280;40488;48.558;18.150;2023-08-21T10:10:59;100060.19;;;32.40;49.51
54592;BME280;40488;48.558;18.150;2023-08-21T10:13:32;100063.28;;;32.45;49.30
54592;BME280;40488;48.558;18.150;2023-08-21T10:16:04;100059.63;;;32.57;49.69
54592;BME280;40488;48.558;18.150;2023-08-21T10:18:37;100054.78;;;32.62;48.59
54592;BME280;40488;48.558;18.150;2023-08-21T10:21:12;100051.03;;;32.65;47.81
54592;BME280;40488;48.558;18.150;2023-08-21T10:23:42;100049.50;;;32.62;47.88
54592;BME280;40488;48.558;18.150;2023-08-21T10:26:13;100042.25;;;32.64;48.22
54592;BME280;40488;48.558;18.150;2023-08-21T10:28:47;100046.22;;;32.79;47.90
54592;BME280;40488;48.558;18.150;2023-08-21T10:31:37;100045.69;;;32.85;47.80
54592;BME280;40488;48.558;18.150;2023-08-21T10:34:08;100046.00;;;32.92;47.69
54592;BME280;40488;48.558;18.150;2023-08-21T10:37:04;100042.59;;;33.11;47.27
54592;BME280;40488;48.558;18.150;2023-08-21T10:39:36;100031.78;;;33.33;47.34
54592;BME280;40488;48.558;18.150;2023-08-21T10:42:08;100038.47;;;33.37;46.70
54592;BME280;40488;48.558;18.150;2023-08-21T10:44:50;100028.41;;;33.31;46.80
54592;BME280;40488;48.558;18.150;2023-08-21T10:47:23;100038.03;;;33.22;46.42
54592;BME280;40488;48.558;18.150;2023-08-21T10:49:53;100031.91;;;33.22;46.05
54592;BME280;40488;48.558;18.150;2023-08-21T10:52:24;100037.09;;;33.33;45.87
54592;BME280;40488;48.558;18.150;2023-08-21T10:54:55;100030.66;;;33.26;45.72
54592;BME280;40488;48.558;18.150;2023-08-21T10:57:25;100037.34;;;33.30;45.77
54592;BME280;40488;48.558;18.150;2023-08-21T10:59:57;100032.09;;;33.49;46.41
54592;BME280;40488;48.558;18.150;2023-08-21T11:02:28;100034.78;;;33.68;45.85
54592;BME280;40488;48.558;18.150;2023-08-21T11:04:58;100032.13;;;33.68;44.87
54592;BME280;40488;48.558;18.150;2023-08-21T11:07:27;100018.16;;;33.95;46.68
54592;BME280;40488;48.558;18.150;2023-08-21T11:09:56;100020.66;;;33.96;45.67
54592;BME280;40488;48.558;18.150;2023-08-21T11:12:25;100016.22;;;33.97;44.61
54592;BME280;40488;48.558;18.150;2023-08-21T11:14:54;100035.72;;;33.86;44.39
54592;BME280;40488;48.558;18.150;2023-08-21T11:17:23;100029.19;;;33.90;44.47
54592;BME280;40488;48.558;18.150;2023-08-21T11:19:53;100017.75;;;34.09;45.42
54592;BME280;40488;48.558;18.150;2023-08-21T11:22:28;100020.41;;;34.09;44.52
54592;BME280;40488;48.558;18.150;2023-08-21T11:24:57;100015.94;;;34.09;44.28
54592;BME280;40488;48.558;18.150;2023-08-21T11:27:26;100026.53;;;34.19;44.15
54592;BME280;40488;48.558;18.150;2023-08-21T11:29:56;100020.94;;;34.12;43.45
54592;BME280;40488;48.558;18.150;2023-08-21T11:32:25;100011.75;;;34.16;42.97
54592;BME280;40488;48.558;18.150;2023-08-21T11:34:57;100019.53;;;34.27;43.21
54592;BME280;40488;48.558;18.150;2023-08-21T11:37:26;100015.84;;;34.48;43.76
54592;BME280;40488;48.558;18.150;2023-08-21T11:39:56;100019.19;;;34.59;42.58
54592;BME280;40488;48.558;18.150;2023-08-21T11:42:30;100014.72;;;34.60;41.37
54592;BME280;40488;48.558;18.150;2023-08-21T11:45:01;100012.13;;;34.68;41.16
54592;BME280;40488;48.558;18.150;2023-08-21T11:47:31;100016.59;;;34.77;41.60
54592;BME280;40488;48.558;18.150;2023-08-21T11:50:07;100013.16;;;34.67;40.52
54592;BME280;40488;48.558;18.150;2023-08-21T11:52:37;100011.84;;;34.71;40.05
54592;BME280;40488;48.558;18.150;2023-08-21T11:55:08;100015.47;;;34.79;40.39
54592;BME280;40488;48.558;18.150;2023-08-21T11:57:46;100011.97;;;35.06;41.61
54592;BME280;40488;48.558;18.150;2023-08-21T12:00:16;100015.50;;;35.24;41.78
54592;BME280;40488;48.558;18.150;2023-08-21T12:02:54;100011.47;;;35.38;41.72
54592;BME280;40488;48.558;18.150;2023-08-21T12:05:26;100013.69;;;35.25;40.42
54592;BME280;40488;48.558;18.150;2023-08-21T12:07:55;100010.84;;;35.09;39.96
54592;BME280;40488;48.558;18.150;2023-08-21T12:10:24;100003.81;;;35.17;40.76
54592;BME280;40488;48.558;18.150;2023-08-21T12:12:54;100008.75;;;35.30;41.53
54592;BME280;40488;48.558;18.150;2023-08-21T12:15:23;100008.22;;;35.26;39.84
54592;BME280;40488;48.558;18.150;2023-08-21T12:17:51;100005.66;;;35.34;40.34
54592;BME280;40488;48.558;18.150;2023-08-21T12:20:20;99997.53;;;35.36;39.67
54592;BME280;40488;48.558;18.150;2023-08-21T12:22:51;99990.47;;;35.44;39.50
54592;BME280;40488;48.558;18.150;2023-08-21T12:25:19;99991.69;;;35.50;40.01
54592;BME280;40488;48.558;18.150;2023-08-21T12:27:48;99989.59;;;35.53;39.93
54592;BME280;40488;48.558;18.150;2023-08-21T12:30:34;99984.41;;;35.34;38.75
54592;BME280;40488;48.558;18.150;2023-08-21T12:33:03;99988.94;;;35.24;37.92
54592;BME280;40488;48.558;18.150;2023-08-21T12:35:48;99977.13;;;35.36;37.78
54592;BME280;40488;48.558;18.150;2023-08-21T12:38:18;99975.81;;;35.23;38.76
54592;BME280;40488;48.558;18.150;2023-08-21T12:40:48;99971.34;;;35.23;38.78
54592;BME280;40488;48.558;18.150;2023-08-21T12:43:17;99970.88;;;35.10;38.16
54592;BME280;40488;48.558;18.150;2023-08-21T12:45:46;99977.03;;;35.01;37.81
54592;BME280;40488;48.558;18.150;2023-08-21T12:48:15;99974.03;;;34.96;37.34
54592;BME280;40488;48.558;18.150;2023-08-21T12:50:44;99972.63;;;34.92;37.47
54592;BME280;40488;48.558;18.150;2023-08-21T12:53:13;99972.13;;;34.88;37.49
54592;BME280;40488;48.558;18.150;2023-08-21T12:55:43;99970.31;;;34.89;37.84